Time;durP1;ratioP1;P1;durP2;ratioP2;P2;SDS_P1;SDS_P2;PMS_P1;PMS_P2;Temp;Humidity;BMP_temperature;BMP_pressure;BME280_temperature;BME280_humidity;BME280_pressure;Samples;Min_cycle;Max_cycle;Signal;HPM_P1;HPM_P2
2024/02/04 00:01:22;;;;;;;3.17;2.27;;;;;;;8.04;93.74;98195.09;6162342;28;20254;-59
2024/02/04 00:04:24;;;;;;;2.23;2.03;;;;;;;8.04;95.46;98195.09;6160088;28;20666;-59
2024/02/04 00:07:27;;;;;;;2.73;2.40;;;;;;;8.05;95.21;98193.25;6162833;28;20713;-58
2024/02/04 00:10:29;;;;;;;2.20;1.97;;;;;;;7.99;93.76;98216.97;6160076;28;20823;-58
2024/02/04 00:13:31;;;;;;;2.50;2.30;;;;;;;8.06;92.60;98203.66;6160851;28;20684;-59
2024/02/04 00:16:33;;;;;;;3.37;2.10;;;;;;;7.93;94.28;98191.28;6163536;28;20193;-58
2024/02/04 00:19:35;;;;;;;2.00;1.60;;;;;;;7.48;96.62;98174.53;6156903;28;20785;-59
2024/02/04 00:22:38;;;;;;;2.60;1.97;;;;;;;7.88;94.00;98195.56;6166268;28;20194;-59
2024/02/04 00:25:41;;;;;;;1.93;1.80;;;;;;;7.88;94.17;98208.84;6158273;28;20234;-59
2024/02/04 00:28:43;;;;;;;2.00;1.80;;;;;;;7.79;94.95;98207.47;6160923;28;20563;-59
2024/02/04 00:31:45;;;;;;;2.83;1.87;;;;;;;7.62;96.64;98213.22;6154957;28;20576;-58
2024/02/04 00:34:48;;;;;;;2.13;1.93;;;;;;;7.74;95.35;98203.63;6158101;28;20296;-59
2024/02/04 00:37:50;;;;;;;2.10;1.90;;;;;;;7.81;94.98;98206.22;6155599;28;20538;-59
2024/02/04 00:40:54;;;;;;;2.23;2.03;;;;;;;7.80;94.86;98199.31;6160921;28;20200;-59
2024/02/04 00:43:56;;;;;;;2.07;1.87;;;;;;;7.66;97.17;98203.03;6166410;28;20200;-59
2024/02/04 00:46:58;;;;;;;1.70;1.60;;;;;;;7.40;100.00;98219.84;6159434;28;20221;-59
2024/02/04 00:50:00;;;;;;;1.50;1.40;;;;;;;7.33;100.00;98203.94;6160743;28;20372;-58
2024/02/04 00:53:03;;;;;;;1.87;1.77;;;;;;;7.46;98.40;98200.44;6165263;28;20197;-59
2024/02/04 00:56:06;;;;;;;1.87;1.77;;;;;;;7.48;100.00;98225.72;6164177;28;20198;-59
2024/02/04 00:59:08;;;;;;;1.80;1.70;;;;;;;7.43;100.00;98224.72;6167955;28;20204;-58
2024/02/04 01:02:10;;;;;;;2.17;1.80;;;;;;;7.41;100.00;98210.88;6166009;28;20192;-59
2024/02/04 01:05:14;;;;;;;1.40;1.30;;;;;;;7.23;100.00;98201.72;6155455;28;20213;-59
2024/02/04 01:08:17;;;;;;;2.00;1.90;;;;;;;7.26;100.00;98237.59;6159320;28;20213;-58
2024/02/04 01:11:19;;;;;;;2.10;1.90;;;;;;;7.10;100.00;98235.41;6168535;28;20710;-59
2024/02/04 01:14:21;;;;;;;1.80;1.70;;;;;;;7.19;100.00;98244.72;6148837;28;20740;-59
2024/02/04 01:17:23;;;;;;;2.03;1.83;;;;;;;7.15;100.00;98254.13;6165917;28;20209;-58
2024/02/04 01:20:25;;;;;;;2.13;1.93;;;;;;;7.14;100.00;98248.03;6163981;28;20566;-60
2024/02/04 01:23:27;;;;;;;1.73;1.63;;;;;;;7.01;100.00;98226.03;6164736;28;20194;-59
2024/02/04 01:26:30;;;;;;;2.10;1.90;;;;;;;6.95;100.00;98232.97;6156489;28;20318;-59
2024/02/04 01:29:32;;;;;;;2.13;1.93;;;;;;;6.92;100.00;98228.88;6160606;28;20662;-59
2024/02/04 01:32:34;;;;;;;1.70;1.60;;;;;;;6.86;100.00;98229.69;6144686;28;20697;-58
2024/02/04 01:35:36;;;;;;;1.50;1.40;;;;;;;6.81;100.00;98244.56;6146602;28;20571;-59
2024/02/04 01:38:38;;;;;;;2.10;1.90;;;;;;;6.72;100.00;98246.59;6163792;28;20205;-59
2024/02/04 01:41:40;;;;;;;2.10;1.90;;;;;;;6.68;100.00;98250.66;6156667;28;20201;-59
2024/02/04 01:44:43;;;;;;;2.20;2.00;;;;;;;6.67;100.00;98249.03;6162861;28;20212;-58
2024/02/04 01:47:45;;;;;;;2.23;2.10;;;;;;;6.55;100.00;98253.28;6159224;28;20200;-59
2024/02/04 01:50:51;;;;;;;2.43;2.23;;;;;;;6.56;100.00;98268.19;6161070;28;20714;-59
2024/02/04 01:53:53;;;;;;;2.80;2.50;;;;;;;6.63;100.00;98239.88;6162432;28;20660;-59
2024/02/04 01:57:01;;;;;;;2.60;2.40;;;;;;;6.72;100.00;98234.19;6155570;28;20209;-58
2024/02/04 02:00:04;;;;;;;2.53;2.33;;;;;;;6.65;100.00;98217.47;6166884;28;20211;-59
2024/02/04 02:03:09;;;;;;;2.90;2.60;;;;;;;6.55;100.00;98232.97;6164411;28;20208;-59
2024/02/04 02:06:13;;;;;;;2.87;2.67;;;;;;;6.67;100.00;98218.09;6160188;28;20204;-59
2024/02/04 02:09:16;;;;;;;3.17;2.87;;;;;;;6.61;100.00;98228.69;6162347;28;20220;-55
2024/02/04 02:12:23;;;;;;;3.50;3.20;;;;;;;6.56;100.00;98228.47;6158123;28;20254;-59
2024/02/04 02:15:30;;;;;;;3.63;3.33;;;;;;;6.49;100.00;98236.38;6157624;28;20205;-59
2024/02/04 02:18:42;;;;;;;3.53;3.23;;;;;;;6.52;100.00;98232.53;6159599;28;20666;-59
2024/02/04 02:22:20;;;;;;;3.63;3.33;;;;;;;6.47;100.00;98252.47;6161872;28;20236;-59
2024/02/04 02:25:23;;;;;;;4.10;3.70;;;;;;;6.44;100.00;98247.56;6150980;28;20201;-59
2024/02/04 02:28:25;;;;;;;3.67;3.37;;;;;;;6.37;100.00;98241.47;6162311;28;20211;-58
2024/02/04 02:31:28;;;;;;;3.77;3.47;;;;;;;6.37;100.00;98248.59;6152547;28;20865;-59
2024/02/04 02:34:47;;;;;;;4.40;3.80;;;;;;;6.33;100.00;98250.00;6164838;28;20661;-59
2024/02/04 02:38:10;;;;;;;3.77;3.43;;;;;;;6.39;100.00;98249.19;6145812;28;20212;-55
2024/02/04 02:41:15;;;;;;;3.63;3.33;;;;;;;6.33;100.00;98221.72;6159484;28;20245;-58
2024/02/04 02:44:19;;;;;;;3.60;3.30;;;;;;;6.44;100.00;98225.59;6157486;28;20204;-59
2024/02/04 02:47:22;;;;;;;2.73;2.53;;;;;;;6.52;100.00;98227.25;6163418;28;20239;-59
2024/02/04 02:50:25;;;;;;;3.03;2.73;;;;;;;6.44;100.00;98210.53;6145637;28;20269;-59
2024/02/04 02:53:27;;;;;;;3.03;2.83;;;;;;;6.49;100.00;98207.28;6149829;28;20241;-59
2024/02/04 02:56:29;;;;;;;2.53;2.33;;;;;;;6.50;100.00;98193.00;6163176;28;20561;-61
2024/02/04 02:59:32;;;;;;;3.03;2.43;;;;;;;6.33;100.00;98174.09;6156308;28;20225;-59
2024/02/04 03:02:34;;;;;;;2.40;2.20;;;;;;;6.46;100.00;98200.56;6158021;28;20280;-59
2024/02/04 03:05:37;;;;;;;2.13;1.93;;;;;;;6.53;100.00;98200.56;6157087;28;20205;-60
2024/02/04 03:08:39;;;;;;;2.50;2.30;;;;;;;6.42;100.00;98180.81;6159343;28;20204;-59
2024/02/04 03:11:42;;;;;;;1.77;1.67;;;;;;;6.44;100.00;98180.59;6162337;28;20216;-60
2024/02/04 03:14:45;;;;;;;2.30;2.10;;;;;;;6.62;100.00;98183.47;6158146;28;20197;-60
2024/02/04 03:17:47;;;;;;;2.13;1.93;;;;;;;6.60;100.00;98171.44;6160423;28;20634;-59
2024/02/04 03:20:49;;;;;;;2.30;1.93;;;;;;;6.60;100.00;98182.03;6156532;28;20270;-59
2024/02/04 03:23:51;;;;;;;1.87;1.77;;;;;;;6.67;100.00;98167.78;6153092;28;20201;-59
2024/02/04 03:26:54;;;;;;;2.10;1.87;;;;;;;6.80;100.00;98174.91;6159691;28;20662;-60
2024/02/04 03:29:56;;;;;;;2.37;2.17;;;;;;;6.61;100.00;98147.44;6163038;28;20220;-59
2024/02/04 03:32:58;;;;;;;2.00;1.90;;;;;;;6.66;100.00;98160.06;6160534;28;20221;-59
2024/02/04 03:36:01;;;;;;;2.57;2.37;;;;;;;6.66;100.00;98160.88;6162072;28;20197;-60
2024/02/04 03:39:03;;;;;;;2.40;2.20;;;;;;;6.62;100.00;98157.00;6147505;28;20664;-59
2024/02/04 03:42:05;;;;;;;2.00;1.80;;;;;;;6.75;100.00;98164.13;6140645;28;20276;-58
2024/02/04 03:45:08;;;;;;;2.30;2.10;;;;;;;6.70;100.00;98155.97;6156598;28;20200;-58
2024/02/04 03:48:10;;;;;;;1.90;1.80;;;;;;;6.70;100.00;98170.03;6160179;28;20200;-58
2024/02/04 03:51:17;;;;;;;2.40;1.93;;;;;;;6.73;100.00;98174.09;6163401;28;20234;-58
2024/02/04 03:54:20;;;;;;;1.90;1.80;;;;;;;6.73;100.00;98176.75;6138860;28;20545;-60
2024/02/04 03:57:22;;;;;;;1.87;1.77;;;;;;;6.74;100.00;98165.13;6156939;28;20345;-59
2024/02/04 04:00:25;;;;;;;1.97;1.77;;;;;;;6.83;100.00;98166.53;6158320;28;20202;-60
2024/02/04 04:03:27;;;;;;;1.80;1.70;;;;;;;6.78;100.00;98187.53;6159023;28;20284;-59
2024/02/04 04:06:29;;;;;;;1.70;1.60;;;;;;;6.79;100.00;98190.97;6150196;28;20280;-58
2024/02/04 04:09:32;;;;;;;1.63;1.43;;;;;;;6.77;100.00;98180.59;6159374;28;20205;-58
2024/02/04 04:12:34;;;;;;;1.43;1.33;;;;;;;6.81;100.00;98157.19;6163401;28;20202;-60
2024/02/04 04:15:36;;;;;;;1.70;1.60;;;;;;;6.87;100.00;98165.13;6161868;28;20207;-58
2024/02/04 04:18:38;;;;;;;1.47;1.37;;;;;;;6.78;100.00;98161.06;6153423;28;20289;-59
2024/02/04 04:21:40;;;;;;;2.40;1.93;;;;;;;6.84;100.00;98173.47;6170693;28;20195;-60
2024/02/04 04:24:43;;;;;;;1.47;1.37;;;;;;;6.86;100.00;98160.84;6162045;28;20756;-60
2024/02/04 04:27:45;;;;;;;2.00;1.80;;;;;;;6.66;100.00;98163.50;6166578;28;20673;-60
2024/02/04 04:30:47;;;;;;;2.30;1.70;;;;;;;6.70;100.00;98169.22;6145775;28;20218;-60
2024/02/04 04:33:49;;;;;;;1.60;1.30;;;;;;;6.68;100.00;98165.94;6164044;28;20700;-60
2024/02/04 04:36:51;;;;;;;1.80;1.70;;;;;;;6.68;100.00;98174.69;6164009;28;20201;-59
2024/02/04 04:39:54;;;;;;;2.27;1.60;;;;;;;6.61;100.00;98158.03;6168645;28;20684;-60
2024/02/04 04:42:56;;;;;;;1.87;1.70;;;;;;;6.79;100.00;98175.91;6159276;28;20201;-60
2024/02/04 04:45:58;;;;;;;2.60;1.70;;;;;;;6.72;100.00;98172.47;6166079;28;20202;-60
2024/02/04 04:49:00;;;;;;;1.90;1.80;;;;;;;6.70;100.00;98185.09;6163000;28;20721;-60
2024/02/04 04:52:03;;;;;;;1.30;1.20;;;;;;;6.47;100.00;98167.78;6159165;28;20217;-60
2024/02/04 04:55:05;;;;;;;1.43;1.33;;;;;;;6.69;100.00;98188.75;6164946;28;20230;-59
2024/02/04 04:58:07;;;;;;;1.77;1.53;;;;;;;6.78;100.00;98192.00;6166688;28;20206;-60
2024/02/04 05:01:10;;;;;;;1.50;1.40;;;;;;;6.78;100.00;98192.81;6166934;28;20198;-59
2024/02/04 05:04:12;;;;;;;1.57;1.47;;;;;;;6.70;100.00;98180.63;6162426;28;20197;-60
2024/02/04 05:07:14;;;;;;;1.33;1.23;;;;;;;6.75;100.00;98179.16;6156260;28;20721;-59
2024/02/04 05:10:17;;;;;;;1.63;1.53;;;;;;;6.85;100.00;98188.34;6158334;28;20268;-60
2024/02/04 05:13:19;;;;;;;1.60;1.50;;;;;;;6.86;100.00;98192.63;6160221;28;20201;-60
2024/02/04 05:16:21;;;;;;;1.57;1.47;;;;;;;6.82;100.00;98187.94;6152827;28;20200;-60
2024/02/04 05:19:23;;;;;;;1.43;1.33;;;;;;;6.71;100.00;98195.47;6163102;28;20210;-59
2024/02/04 05:22:25;;;;;;;2.37;1.80;;;;;;;6.81;100.00;98213.59;6165697;28;20213;-60
2024/02/04 05:25:27;;;;;;;1.60;1.50;;;;;;;6.83;100.00;98208.09;6159241;28;20201;-60
2024/02/04 05:28:29;;;;;;;2.17;1.97;;;;;;;6.78;100.00;98184.88;6162840;28;20224;-61
2024/02/04 05:31:31;;;;;;;2.00;1.80;;;;;;;6.89;100.00;98225.81;6157026;28;20578;-59
2024/02/04 05:34:34;;;;;;;2.97;2.37;;;;;;;6.81;100.00;98229.50;6159991;28;20236;-60
2024/02/04 05:37:36;;;;;;;2.10;1.90;;;;;;;6.83;100.00;98202.81;6154751;28;20203;-59
2024/02/04 05:40:38;;;;;;;2.20;2.00;;;;;;;6.92;100.00;98205.03;6162638;28;20201;-59
2024/02/04 05:43:41;;;;;;;2.03;1.73;;;;;;;6.71;100.00;98206.06;6165997;28;20604;-59
2024/02/04 05:46:43;;;;;;;2.77;2.50;;;;;;;6.76;100.00;98217.88;6168621;28;20205;-60
2024/02/04 05:49:45;;;;;;;2.53;2.30;;;;;;;7.01;100.00;98215.44;6162521;28;20783;-59
2024/02/04 05:52:48;;;;;;;2.20;2.00;;;;;;;6.96;100.00;98203.63;6158778;28;20360;-59
2024/02/04 05:55:50;;;;;;;2.57;2.37;;;;;;;6.92;100.00;98220.94;6161939;28;20212;-59
2024/02/04 05:58:53;;;;;;;2.60;2.40;;;;;;;6.81;100.00;98188.97;6159463;28;20987;-59
2024/02/04 06:01:55;;;;;;;2.93;2.30;;;;;;;6.83;100.00;98197.50;6163998;28;20273;-58
2024/02/04 06:04:57;;;;;;;2.50;2.30;;;;;;;6.73;100.00;98196.09;6167684;28;20557;-59
2024/02/04 06:07:59;;;;;;;3.10;2.80;;;;;;;6.72;100.00;98199.75;6161373;28;20703;-59
2024/02/04 06:11:02;;;;;;;3.33;3.03;;;;;;;6.68;100.00;98189.78;6159683;28;20807;-59
2024/02/04 06:14:04;;;;;;;2.90;2.50;;;;;;;6.93;100.00;98211.16;6168057;28;20192;-59
2024/02/04 06:17:08;;;;;;;2.83;2.53;;;;;;;6.83;100.00;98221.34;6163205;28;20201;-60
2024/02/04 06:20:10;;;;;;;2.53;2.33;;;;;;;6.76;100.00;98202.00;6167847;28;20204;-60
2024/02/04 06:23:12;;;;;;;2.30;2.10;;;;;;;6.69;100.00;98225.81;6164804;28;20288;-60
2024/02/04 06:26:15;;;;;;;2.20;2.00;;;;;;;6.80;100.00;98206.69;6164990;28;20567;-60
2024/02/04 06:29:17;;;;;;;2.63;2.43;;;;;;;6.74;100.00;98231.31;6167174;28;20734;-61
2024/02/04 06:32:21;;;;;;;3.80;2.10;;;;;;;6.70;100.00;98238.06;6161302;28;20284;-60
2024/02/04 06:35:24;;;;;;;2.47;2.27;;;;;;;6.76;100.00;98229.28;6163666;28;20573;-59
2024/02/04 06:38:26;;;;;;;2.43;2.23;;;;;;;6.73;100.00;98229.69;6163577;28;20209;-60
2024/02/04 06:41:28;;;;;;;2.57;2.37;;;;;;;6.70;100.00;98235.41;6164312;28;20318;-60
2024/02/04 06:44:30;;;;;;;2.60;2.40;;;;;;;6.73;100.00;98233.16;6163043;28;20280;-61
2024/02/04 06:47:32;;;;;;;2.30;2.10;;;;;;;6.92;100.00;98236.00;6158766;28;20661;-60
2024/02/04 06:50:35;;;;;;;2.40;2.20;;;;;;;6.84;100.00;98221.13;6156584;28;20284;-60
2024/02/04 06:53:37;;;;;;;2.83;2.60;;;;;;;6.91;100.00;98240.50;6155811;28;20291;-59
2024/02/04 06:56:40;;;;;;;2.43;2.23;;;;;;;6.88;100.00;98263.91;6161403;28;20205;-60
2024/02/04 06:59:42;;;;;;;2.30;2.10;;;;;;;6.94;100.00;98271.84;6162326;28;20442;-60
2024/02/04 07:02:44;;;;;;;2.50;2.30;;;;;;;7.02;100.00;98291.22;6164113;28;20198;-60
2024/02/04 07:05:46;;;;;;;2.63;2.30;;;;;;;7.01;100.00;98252.50;6153720;28;20283;-60
2024/02/04 07:08:49;;;;;;;2.50;2.30;;;;;;;6.79;100.00;98247.41;6163213;28;20195;-60
2024/02/04 07:11:51;;;;;;;2.13;1.73;;;;;;;6.94;100.00;98260.44;6163300;28;20229;-60
2024/02/04 07:14:54;;;;;;;2.20;2.00;;;;;;;7.04;100.00;98258.19;6143877;28;20207;-60
2024/02/04 07:17:56;;;;;;;1.93;1.83;;;;;;;7.04;100.00;98257.38;6155429;28;20231;-60
2024/02/04 07:20:58;;;;;;;1.73;1.63;;;;;;;6.91;100.00;98255.56;6157355;28;20202;-61
2024/02/04 07:24:00;;;;;;;2.53;2.03;;;;;;;6.89;100.00;98254.94;6152234;28;20648;-60
2024/02/04 07:27:02;;;;;;;2.10;1.77;;;;;;;7.01;100.00;98263.94;6154911;28;20252;-61
2024/02/04 07:30:05;;;;;;;2.53;1.93;;;;;;;7.04;100.00;98263.50;6153326;28;20217;-61
2024/02/04 07:33:07;;;;;;;2.20;2.00;;;;;;;7.17;100.00;98267.97;6156355;28;20206;-61
2024/02/04 07:36:11;;;;;;;1.93;1.80;;;;;;;7.21;100.00;98279.81;6158811;28;20215;-60
2024/02/04 07:39:13;;;;;;;2.90;1.80;;;;;;;7.28;100.00;98270.00;6148999;28;20205;-60
2024/02/04 07:42:15;;;;;;;1.80;1.70;;;;;;;7.30;100.00;98296.31;6159388;28;20224;-61
2024/02/04 07:45:18;;;;;;;3.30;1.63;;;;;;;7.30;100.00;98283.06;6154556;28;20196;-59
2024/02/04 07:48:20;;;;;;;1.33;1.23;;;;;;;7.42;100.00;98268.16;6153763;28;20582;-61
2024/02/04 07:51:23;;;;;;;1.67;1.17;;;;;;;7.40;100.00;98257.75;6162553;28;20560;-61
2024/02/04 07:54:25;;;;;;;1.40;1.30;;;;;;;7.38;100.00;98251.84;6151880;28;20200;-61
2024/02/04 07:57:27;;;;;;;1.27;1.17;;;;;;;7.49;99.44;98269.78;6160667;28;20670;-61
2024/02/04 08:00:29;;;;;;;0.80;0.80;;;;;;;7.62;98.45;98260.16;6149078;28;20659;-61
2024/02/04 08:03:31;;;;;;;1.50;1.30;;;;;;;7.54;97.35;98242.66;6158062;28;20194;-61
2024/02/04 08:06:34;;;;;;;0.80;0.80;;;;;;;7.58;98.71;98243.84;6154513;28;20620;-61
2024/02/04 08:09:37;;;;;;;1.90;0.83;;;;;;;7.53;100.00;98243.66;6162286;28;20658;-60
2024/02/04 08:12:39;;;;;;;1.87;1.00;;;;;;;7.57;99.84;98236.09;6160523;28;20226;-61
2024/02/04 08:15:41;;;;;;;0.80;0.80;;;;;;;7.82;96.08;98244.97;6164501;28;20198;-61
2024/02/04 08:18:43;;;;;;;1.13;1.03;;;;;;;7.82;97.62;98244.16;6157523;28;20194;-61
2024/02/04 08:21:45;;;;;;;0.70;0.70;;;;;;;7.90;95.62;98236.81;6163248;28;20664;-61
2024/02/04 08:24:48;;;;;;;0.80;0.63;;;;;;;8.00;97.62;98257.56;6160354;28;20340;-61
2024/02/04 08:27:50;;;;;;;0.87;0.70;;;;;;;8.07;92.61;98244.25;6164818;28;20961;-61
2024/02/04 08:30:52;;;;;;;0.50;0.50;;;;;;;8.21;91.13;98243.19;6153531;28;20202;-61
2024/02/04 08:33:54;;;;;;;0.50;0.50;;;;;;;8.09;92.90;98239.59;6160070;28;20206;-61
2024/02/04 08:36:56;;;;;;;0.30;0.30;;;;;;;8.20;91.54;98246.88;6157699;28;20218;-61
2024/02/04 08:39:59;;;;;;;0.50;0.50;;;;;;;8.17;92.77;98241.97;6161713;28;20190;-61
2024/02/04 08:43:01;;;;;;;0.53;0.40;;;;;;;8.18;92.65;98235.66;6165727;28;20190;-61
2024/02/04 08:46:05;;;;;;;0.60;0.47;;;;;;;8.33;89.85;98233.53;6155720;28;20201;-59
2024/02/04 08:49:14;;;;;;;0.40;0.40;;;;;;;8.53;88.15;98242.22;6157666;28;20602;-61
2024/02/04 08:52:16;;;;;;;0.40;0.40;;;;;;;8.52;88.68;98226.47;6161550;28;20198;-61
2024/02/04 08:55:19;;;;;;;0.77;0.50;;;;;;;8.49;90.83;98224.25;6162625;28;20233;-57
2024/02/04 08:58:22;;;;;;;0.30;0.30;;;;;;;8.51;87.82;98214.22;6164162;28;20204;-61
2024/02/04 09:01:24;;;;;;;0.37;0.37;;;;;;;8.69;88.33;98209.00;6160152;28;20201;-60
2024/02/04 09:04:26;;;;;;;0.33;0.30;;;;;;;8.59;90.84;98191.91;6166580;28;20201;-61
2024/02/04 09:07:28;;;;;;;0.30;0.30;;;;;;;8.68;89.10;98185.31;6160409;28;20336;-60
2024/02/04 09:10:34;;;;;;;0.63;0.43;;;;;;;8.89;87.94;98189.41;6168945;28;20219;-61
2024/02/04 09:13:36;;;;;;;0.30;0.30;;;;;;;8.92;89.66;98187.16;6162074;28;20683;-61
2024/02/04 09:16:39;;;;;;;0.20;0.20;;;;;;;9.16;88.35;98182.00;6161204;28;20202;-61
2024/02/04 09:19:41;;;;;;;0.77;0.30;;;;;;;9.32;85.93;98180.63;6163919;28;20742;-61
2024/02/04 09:22:44;;;;;;;0.20;0.20;;;;;;;9.48;82.11;98172.84;6163812;28;20903;-61
2024/02/04 09:25:46;;;;;;;0.40;0.20;;;;;;;9.38;86.85;98180.53;6155795;28;20732;-61
2024/02/04 09:28:49;;;;;;;0.20;0.20;;;;;;;9.36;83.08;98192.41;6162952;28;20332;-61
2024/02/04 09:31:52;;;;;;;0.20;0.20;;;;;;;9.57;84.57;98176.03;6168179;28;20563;-61
2024/02/04 09:34:55;;;;;;;1.03;0.20;;;;;;;9.71;80.38;98179.34;6154126;28;20254;-63
2024/02/04 09:37:57;;;;;;;0.20;0.20;;;;;;;9.65;81.82;98164.25;6146416;28;20222;-62
2024/02/04 09:41:00;;;;;;;0.30;0.30;;;;;;;9.66;80.63;98158.72;6160487;28;20253;-61
2024/02/04 09:44:06;;;;;;;0.20;0.20;;;;;;;9.80;81.30;98184.16;6163888;28;20201;-61
2024/02/04 09:47:10;;;;;;;0.20;0.20;;;;;;;9.83;78.97;98181.00;6166529;28;20560;-61
2024/02/04 09:50:12;;;;;;;0.20;0.20;;;;;;;9.90;79.73;98180.09;6160428;28;20290;-61
2024/02/04 09:53:26;;;;;;;0.20;0.20;;;;;;;10.11;81.42;98170.84;6165869;28;20209;-62
2024/02/04 09:56:30;;;;;;;0.40;0.40;;;;;;;10.31;82.28;98176.72;6164638;28;20433;-62
2024/02/04 09:59:33;;;;;;;0.30;0.20;;;;;;;10.35;81.67;98167.25;6165149;28;20221;-62
2024/02/04 10:02:35;;;;;;;0.20;0.20;;;;;;;10.36;77.42;98150.22;6162798;28;20182;-61
2024/02/04 10:05:38;;;;;;;0.30;0.30;;;;;;;10.11;79.18;98163.66;6163373;28;20198;-61
2024/02/04 10:08:40;;;;;;;0.20;0.20;;;;;;;9.90;80.88;98153.50;6164587;28;20205;-61
2024/02/04 10:11:42;;;;;;;0.93;0.20;;;;;;;9.96;79.56;98156.09;6163375;28;20564;-61
2024/02/04 10:14:45;;;;;;;0.20;0.20;;;;;;;9.93;82.17;98148.53;6161859;28;20471;-61
2024/02/04 10:17:47;;;;;;;0.20;0.20;;;;;;;9.59;83.35;98134.06;6146674;28;20202;-61
2024/02/04 10:20:49;;;;;;;0.10;0.10;;;;;;;9.56;82.62;98127.34;6163837;28;20836;-61
2024/02/04 10:23:51;;;;;;;0.20;0.20;;;;;;;9.59;86.28;98144.69;6160553;28;20187;-61
2024/02/04 10:26:57;;;;;;;0.10;0.10;;;;;;;9.51;84.15;98135.19;6163601;28;20249;-61
2024/02/04 10:29:59;;;;;;;0.30;0.20;;;;;;;9.70;86.50;98141.25;6163364;28;20196;-61
2024/02/04 10:33:01;;;;;;;0.10;0.10;;;;;;;9.51;84.24;98124.53;6163445;28;20845;-61
2024/02/04 10:36:04;;;;;;;0.20;0.20;;;;;;;9.86;84.89;98126.53;6163527;28;20713;-61
2024/02/04 10:39:07;;;;;;;0.10;0.10;;;;;;;10.04;82.94;98104.38;6158998;28;20206;-60
2024/02/04 10:42:12;;;;;;;0.20;0.20;;;;;;;10.12;82.02;98087.25;6156411;28;20197;-61
2024/02/04 10:45:18;;;;;;;0.10;0.10;;;;;;;10.23;85.26;98067.84;6156069;28;20662;-61
2024/02/04 10:48:24;;;;;;;0.10;0.10;;;;;;;10.51;83.71;98109.81;6162413;28;20212;-59
2024/02/04 10:51:27;;;;;;;0.53;0.20;;;;;;;10.23;83.40;98099.78;6134125;28;20270;-61
2024/02/04 10:54:30;;;;;;;0.20;0.20;;;;;;;10.30;81.86;98080.03;6164211;28;20680;-60
2024/02/04 10:57:32;;;;;;;0.33;0.23;;;;;;;9.95;82.13;98090.59;6161014;28;20671;-60
2024/02/04 11:00:35;;;;;;;0.10;0.10;;;;;;;9.85;81.39;98062.88;6165457;28;20222;-61
2024/02/04 11:03:39;;;;;;;0.20;0.20;;;;;;;9.61;84.25;98062.03;6157843;28;20249;-61
2024/02/04 11:06:42;;;;;;;0.30;0.30;;;;;;;9.87;82.14;98082.94;6168227;28;20663;-61
2024/02/04 11:09:48;;;;;;;0.10;0.10;;;;;;;10.03;81.93;98060.97;6148203;28;20294;-61
2024/02/04 11:12:51;;;;;;;0.20;0.20;;;;;;;10.14;80.22;98048.72;6156106;28;20210;-60
2024/02/04 11:15:58;;;;;;;0.20;0.10;;;;;;;10.13;80.16;98051.63;6161856;28;20650;-61
2024/02/04 11:19:30;;;;;;;0.30;0.10;;;;;;;10.17;82.84;98069.56;6161037;28;20333;-61
2024/02/04 11:22:50;;;;;;;0.10;0.10;;;;;;;10.18;78.55;98071.19;6154753;28;20186;-61
2024/02/04 11:25:56;;;;;;;0.10;0.10;;;;;;;10.23;80.42;98084.63;6159243;28;20194;-62
2024/02/04 11:29:01;;;;;;;0.10;0.10;;;;;;;9.71;82.30;98028.53;6167984;28;20210;-61
2024/02/04 11:32:05;;;;;;;0.20;0.20;;;;;;;9.87;84.00;98082.94;6151887;28;20205;-62
2024/02/04 11:35:08;;;;;;;0.30;0.30;;;;;;;9.69;83.49;98113.03;6159261;28;20290;-61
2024/02/04 11:38:14;;;;;;;0.23;0.23;;;;;;;9.55;83.69;98112.41;6152597;28;20214;-61
2024/02/04 11:41:24;;;;;;;0.20;0.20;;;;;;;9.41;85.29;98100.34;6159035;28;20578;-61
2024/02/04 11:44:26;;;;;;;0.20;0.20;;;;;;;9.43;85.98;98098.25;6159786;28;20204;-61
2024/02/04 11:47:29;;;;;;;0.20;0.20;;;;;;;9.35;88.02;98101.19;6160021;28;20203;-61
2024/02/04 11:50:31;;;;;;;1.53;0.37;;;;;;;9.46;88.14;98081.06;6158527;28;20825;-61
2024/02/04 11:53:34;;;;;;;0.30;0.30;;;;;;;9.17;86.80;98059.53;6157583;28;20241;-61
2024/02/04 11:56:36;;;;;;;0.30;0.30;;;;;;;9.25;88.48;98072.50;6162205;28;20206;-61
2024/02/04 11:59:39;;;;;;;0.40;0.40;;;;;;;9.21;88.34;98070.50;6156264;28;20194;-62
2024/02/04 12:02:42;;;;;;;0.40;0.40;;;;;;;9.33;89.25;98071.38;6156606;28;20198;-61
2024/02/04 12:05:45;;;;;;;0.50;0.50;;;;;;;9.43;85.14;98068.19;6153388;28;20670;-61
2024/02/04 12:08:47;;;;;;;0.57;0.47;;;;;;;9.32;87.89;98076.94;6151557;28;20202;-62
2024/02/04 12:11:51;;;;;;;0.40;0.40;;;;;;;9.48;88.22;98063.00;6146579;28;20207;-61
2024/02/04 12:14:54;;;;;;;3.73;1.00;;;;;;;9.50;84.99;98060.94;6158450;28;20207;-62
2024/02/04 12:18:05;;;;;;;0.73;0.63;;;;;;;9.46;85.71;98055.25;6154646;28;20193;-62
2024/02/04 12:21:07;;;;;;;0.50;0.50;;;;;;;9.65;83.38;98037.38;6155506;28;20195;-60
2024/02/04 12:24:09;;;;;;;0.50;0.47;;;;;;;9.69;85.48;98053.72;6156696;28;20196;-62
2024/02/04 12:27:12;;;;;;;0.93;0.57;;;;;;;9.41;85.99;98028.53;6163225;28;20695;-60
2024/02/04 12:30:15;;;;;;;0.50;0.50;;;;;;;9.43;86.88;98041.59;6162974;28;20294;-61
2024/02/04 12:33:18;;;;;;;0.70;0.50;;;;;;;9.50;86.18;98051.09;6152344;28;20600;-62
2024/02/04 12:36:21;;;;;;;0.60;0.60;;;;;;;9.63;85.44;98033.34;6162387;28;20690;-61
2024/02/04 12:39:23;;;;;;;0.77;0.60;;;;;;;9.67;84.46;98045.16;6163302;28;20190;-61
2024/02/04 12:42:25;;;;;;;1.33;0.87;;;;;;;9.63;85.26;98039.47;6160294;28;20187;-62
2024/02/04 12:45:28;;;;;;;0.53;0.53;;;;;;;9.49;85.47;98041.50;6161294;28;20710;-61
2024/02/04 12:48:30;;;;;;;0.60;0.60;;;;;;;9.40;87.05;98068.63;6162799;28;20666;-61
2024/02/04 12:51:37;;;;;;;2.17;0.70;;;;;;;9.40;88.69;98055.34;6165638;28;20677;-60
2024/02/04 12:54:44;;;;;;;1.10;0.70;;;;;;;9.13;89.49;98050.38;6164742;28;20214;-61
2024/02/04 12:57:46;;;;;;;1.70;0.90;;;;;;;9.07;90.43;98051.25;6155892;28;20199;-60
2024/02/04 13:00:48;;;;;;;1.10;1.00;;;;;;;8.89;92.25;98037.97;6153175;28;20562;-61
2024/02/04 13:03:50;;;;;;;1.10;1.00;;;;;;;8.87;91.48;98029.44;6163655;28;20571;-61
2024/02/04 13:06:53;;;;;;;1.40;0.93;;;;;;;8.89;93.16;98016.72;6157728;28;20206;-61
2024/02/04 13:10:01;;;;;;;1.27;1.07;;;;;;;8.83;92.93;97985.75;6163603;28;20200;-61
2024/02/04 13:13:08;;;;;;;4.03;1.27;;;;;;;8.84;93.01;97982.84;6164496;28;20199;-61
2024/02/04 13:16:11;;;;;;;1.43;1.03;;;;;;;8.87;93.84;97982.41;6165811;28;20344;-61
2024/02/04 13:19:13;;;;;;;1.10;1.00;;;;;;;9.04;91.12;97995.88;6159433;28;20198;-60
2024/02/04 13:22:15;;;;;;;1.13;1.03;;;;;;;8.98;91.12;97986.16;6166575;28;20713;-61
2024/02/04 13:25:17;;;;;;;3.63;1.20;;;;;;;8.92;92.37;97971.13;6157681;28;20194;-61
2024/02/04 13:28:22;;;;;;;2.47;1.10;;;;;;;8.94;92.44;97984.97;6157709;28;20289;-61
2024/02/04 13:31:25;;;;;;;1.43;0.90;;;;;;;9.01;93.91;97973.25;6161964;28;20202;-61
2024/02/04 13:34:29;;;;;;;1.37;0.90;;;;;;;9.07;90.65;97962.75;6166069;28;20688;-61
2024/02/04 13:37:31;;;;;;;1.53;0.93;;;;;;;9.10;90.48;97988.88;6163512;28;20194;-60
2024/02/04 13:40:33;;;;;;;2.83;1.07;;;;;;;9.10;92.43;98015.44;6160019;28;20285;-61
2024/02/04 13:43:35;;;;;;;1.70;1.13;;;;;;;9.07;91.65;98007.94;6163204;28;20205;-61
2024/02/04 13:46:42;;;;;;;0.93;0.83;;;;;;;9.07;89.41;98022.03;6169709;28;20277;-61
2024/02/04 13:49:44;;;;;;;1.17;1.00;;;;;;;9.01;90.43;97998.97;6136229;29;20318;-59
2024/02/04 13:52:46;;;;;;;1.60;1.13;;;;;;;9.20;90.01;97994.44;6142024;28;20199;-61
2024/02/04 13:55:49;;;;;;;1.93;1.30;;;;;;;9.17;89.37;97987.75;6141954;29;20740;-59
2024/02/04 13:58:51;;;;;;;2.50;1.10;;;;;;;9.12;89.69;98000.09;6139181;28;20204;-61
2024/02/04 14:01:53;;;;;;;2.00;1.10;;;;;;;9.11;88.85;97988.63;6137061;28;20256;-61
2024/02/04 14:05:02;;;;;;;3.60;1.40;;;;;;;9.15;89.64;97996.97;6138257;28;20203;-59
2024/02/04 14:08:05;;;;;;;1.20;1.10;;;;;;;9.18;88.86;97970.75;6144010;28;20275;-61
2024/02/04 14:11:07;;;;;;;2.07;1.40;;;;;;;9.31;89.41;97983.06;6133491;29;20218;-59
2024/02/04 14:14:09;;;;;;;1.13;1.00;;;;;;;9.23;88.70;97962.91;6129345;29;20204;-60
2024/02/04 14:17:12;;;;;;;1.10;1.00;;;;;;;9.20;89.22;97959.91;6139873;29;20202;-61
2024/02/04 14:20:14;;;;;;;4.13;1.73;;;;;;;9.17;89.96;97974.47;6139695;29;20574;-59
2024/02/04 14:23:16;;;;;;;0.90;0.83;;;;;;;9.09;90.02;97977.44;6140972;29;20396;-61
2024/02/04 14:26:20;;;;;;;2.27;0.90;;;;;;;9.23;89.35;97951.47;6135650;28;20198;-61